Weather at Aeropuerto "General Tomas de Heres". Ciudad Bolivar

Public forecast

Using degrees Celsius for public forecast. Weather courtesy of forecast.io.

Closest aviation weather report (METAR) to Aeropuerto "General Tomas de Heres". Ciudad Bolivar

Report is more than 2 hours old.

Closest report is General José Antonio Anzoategui International Airport, 137.7 nm (254.9 km) NNW.

2024/05/27 23:00 (retrieved 5 hours ago)

SVBC 272300Z 34010KT 9999 SCT020 39/XX Q1011

Closest aviation forecast (TAF) to Aeropuerto "General Tomas de Heres". Ciudad Bolivar

Forecast is more than 6 hours old.

Closest forecast is General Manuel Carlos Piar International Airport, 47.2 nm (87.4 km) ENE.

2024/05/27 18:00 (retrieved 10 hours ago)

TAF SVPR 271600Z 2718/2818 09013KT 9999 SCT016 TX33/2719Z TN24/2808Z FM272000 08006KT 9000 -DZ SCT016 BKN100 TEMPO 2800/2804 09006KT 9999 SCT016 BKN013